KRSW/RSW METAR and TAF weather

Enter ICAO airport designator
Station Type Date Time Source
KRSW METAR 2018/12/13 19:53 UTC NOAA

KRSW 131953Z AUTO 14015G22KT 10SM CLR 26/16 A3005 RMK AO2 SLP175 T02560156


Station Type Date Time Source
KRSW Decoded METAR 2018/12/13 19:53 UTC NOAA

FORT MYERS SW FL INTERNATIONAL AIRPORT , FL, United States (KRSW) 26-32N 081-46W 9M
Dec 13, 2018 - 02:53 PM EST / 2018.12.13 1953 UTC
Wind: from the SE (140 degrees) at 17 MPH (15 KT) gusting to 25 MPH (22 KT):0
Visibility: 10 mile(s):0
Sky conditions: clear
Temperature: 78.1 F (25.6 C)
Dew Point: 60.1 F (15.6 C)
Relative Humidity: 53%
Pressure (altimeter): 30.05 in. Hg (1017 hPa)
ob: KRSW 131953Z AUTO 14015G22KT 10SM CLR 26/16 A3005 RMK AO2 SLP175 T02560156
cycle: 20

Station Type Date Time Source
KRSW TAF 2018/12/13 18:27 UTC NOAA

TAF KRSW 131724Z 1318/1418 14012KT P6SM SCT040 BKN070
FM140100 12006KT P6SM SCT045 BKN080
FM141400 16014KT P6SM SCT025 OVC040


Example: see airport list